sensor_id;sensor_type;location;lat;lon;timestamp;P1;durP1;ratioP1;P2;durP2;ratioP2
13805;SDS011;6974;53.606;9.872;2022-10-31T00:00:04;32.20;;;25.50;;
13805;SDS011;6974;53.606;9.872;2022-10-31T00:02:33;29.40;;;23.30;;
13805;SDS011;6974;53.606;9.872;2022-10-31T00:05:02;30.03;;;22.87;;
13805;SDS011;6974;53.606;9.872;2022-10-31T00:07:29;28.57;;;22.03;;
13805;SDS011;6974;53.606;9.872;2022-10-31T00:09:56;24.30;;;19.80;;
13805;SDS011;6974;53.606;9.872;2022-10-31T00:12:23;27.97;;;19.63;;
13805;SDS011;6974;53.606;9.872;2022-10-31T00:14:50;26.43;;;19.03;;
13805;SDS011;6974;53.606;9.872;2022-10-31T00:17:17;27.30;;;18.50;;
13805;SDS011;6974;53.606;9.872;2022-10-31T00:19:43;24.27;;;18.87;;
13805;SDS011;6974;53.606;9.872;2022-10-31T00:22:12;24.17;;;19.10;;
13805;SDS011;6974;53.606;9.872;2022-10-31T00:24:38;22.90;;;17.97;;
13805;SDS011;6974;53.606;9.872;2022-10-31T00:27:05;24.53;;;20.03;;
13805;SDS011;6974;53.606;9.872;2022-10-31T00:29:32;24.83;;;19.00;;
13805;SDS011;6974;53.606;9.872;2022-10-31T00:32:00;24.27;;;19.50;;
13805;SDS011;6974;53.606;9.872;2022-10-31T00:34:26;23.83;;;19.17;;
13805;SDS011;6974;53.606;9.872;2022-10-31T00:36:53;24.17;;;19.10;;
13805;SDS011;6974;53.606;9.872;2022-10-31T00:39:22;23.60;;;19.77;;
13805;SDS011;6974;53.606;9.872;2022-10-31T00:41:49;22.93;;;18.40;;
13805;SDS011;6974;53.606;9.872;2022-10-31T00:44:15;25.90;;;19.73;;
13805;SDS011;6974;53.606;9.872;2022-10-31T00:46:42;21.73;;;18.37;;
13805;SDS011;6974;53.606;9.872;2022-10-31T00:49:09;24.47;;;18.50;;
13805;SDS011;6974;53.606;9.872;2022-10-31T00:51:37;26.73;;;19.03;;
13805;SDS011;6974;53.606;9.872;2022-10-31T00:54:04;21.87;;;17.87;;
13805;SDS011;6974;53.606;9.872;2022-10-31T00:56:32;23.33;;;18.33;;
13805;SDS011;6974;53.606;9.872;2022-10-31T00:58:59;23.30;;;19.90;;
13805;SDS011;6974;53.606;9.872;2022-10-31T01:01:26;24.73;;;18.47;;
13805;SDS011;6974;53.606;9.872;2022-10-31T01:03:53;24.17;;;19.07;;
13805;SDS011;6974;53.606;9.872;2022-10-31T01:06:20;23.13;;;17.90;;
13805;SDS011;6974;53.606;9.872;2022-10-31T01:08:47;23.57;;;18.20;;
13805;SDS011;6974;53.606;9.872;2022-10-31T01:11:15;25.87;;;18.57;;
13805;SDS011;6974;53.606;9.872;2022-10-31T01:13:45;26.03;;;19.17;;
13805;SDS011;6974;53.606;9.872;2022-10-31T01:16:13;24.03;;;18.53;;
13805;SDS011;6974;53.606;9.872;2022-10-31T01:18:43;24.23;;;19.23;;
13805;SDS011;6974;53.606;9.872;2022-10-31T01:21:11;25.03;;;20.27;;
13805;SDS011;6974;53.606;9.872;2022-10-31T01:23:40;25.87;;;20.97;;
13805;SDS011;6974;53.606;9.872;2022-10-31T01:26:08;24.17;;;18.67;;
13805;SDS011;6974;53.606;9.872;2022-10-31T01:28:37;27.07;;;20.93;;
13805;SDS011;6974;53.606;9.872;2022-10-31T01:31:07;24.47;;;20.87;;
13805;SDS011;6974;53.606;9.872;2022-10-31T01:33:35;25.40;;;20.73;;
13805;SDS011;6974;53.606;9.872;2022-10-31T01:36:10;32.27;;;22.90;;
13805;SDS011;6974;53.606;9.872;2022-10-31T01:38:41;23.50;;;20.97;;
13805;SDS011;6974;53.606;9.872;2022-10-31T01:41:08;24.63;;;20.53;;
13805;SDS011;6974;53.606;9.872;2022-10-31T01:43:47;29.40;;;21.53;;
13805;SDS011;6974;53.606;9.872;2022-10-31T01:46:17;27.30;;;21.17;;
13805;SDS011;6974;53.606;9.872;2022-10-31T01:48:48;26.63;;;20.87;;
13805;SDS011;6974;53.606;9.872;2022-10-31T01:51:16;26.37;;;22.00;;
13805;SDS011;6974;53.606;9.872;2022-10-31T01:53:46;26.47;;;21.90;;
13805;SDS011;6974;53.606;9.872;2022-10-31T01:56:14;28.63;;;22.60;;
13805;SDS011;6974;53.606;9.872;2022-10-31T01:58:42;28.03;;;22.73;;
13805;SDS011;6974;53.606;9.872;2022-10-31T02:01:11;25.93;;;23.13;;
13805;SDS011;6974;53.606;9.872;2022-10-31T02:03:44;31.57;;;23.20;;
13805;SDS011;6974;53.606;9.872;2022-10-31T02:06:14;30.00;;;23.97;;
13805;SDS011;6974;53.606;9.872;2022-10-31T02:08:47;28.80;;;24.43;;
13805;SDS011;6974;53.606;9.872;2022-10-31T02:11:15;29.20;;;23.67;;
13805;SDS011;6974;53.606;9.872;2022-10-31T02:13:42;33.20;;;24.07;;
13805;SDS011;6974;53.606;9.872;2022-10-31T02:16:09;30.83;;;23.27;;
13805;SDS011;6974;53.606;9.872;2022-10-31T02:18:36;31.53;;;24.00;;
13805;SDS011;6974;53.606;9.872;2022-10-31T02:21:08;27.60;;;23.03;;
13805;SDS011;6974;53.606;9.872;2022-10-31T02:23:46;26.33;;;22.73;;
13805;SDS011;6974;53.606;9.872;2022-10-31T02:26:54;33.33;;;24.57;;
13805;SDS011;6974;53.606;9.872;2022-10-31T02:32:31;35.07;;;25.50;;
13805;SDS011;6974;53.606;9.872;2022-10-31T02:35:10;33.30;;;25.30;;
13805;SDS011;6974;53.606;9.872;2022-10-31T02:37:46;33.87;;;25.13;;
13805;SDS011;6974;53.606;9.872;2022-10-31T02:40:17;30.43;;;25.17;;
13805;SDS011;6974;53.606;9.872;2022-10-31T02:42:50;33.00;;;25.10;;
13805;SDS011;6974;53.606;9.872;2022-10-31T02:45:24;33.03;;;24.33;;
13805;SDS011;6974;53.606;9.872;2022-10-31T02:47:58;31.30;;;24.93;;
13805;SDS011;6974;53.606;9.872;2022-10-31T02:50:28;32.77;;;25.23;;
13805;SDS011;6974;53.606;9.872;2022-10-31T02:52:58;31.23;;;24.13;;
13805;SDS011;6974;53.606;9.872;2022-10-31T02:55:44;32.67;;;25.03;;
13805;SDS011;6974;53.606;9.872;2022-10-31T02:58:21;29.60;;;24.67;;
13805;SDS011;6974;53.606;9.872;2022-10-31T03:00:56;30.33;;;24.30;;
13805;SDS011;6974;53.606;9.872;2022-10-31T03:03:39;30.67;;;23.67;;
13805;SDS011;6974;53.606;9.872;2022-10-31T03:06:17;31.43;;;24.73;;
13805;SDS011;6974;53.606;9.872;2022-10-31T03:08:50;34.10;;;24.80;;
13805;SDS011;6974;53.606;9.872;2022-10-31T03:11:27;33.07;;;25.70;;
13805;SDS011;6974;53.606;9.872;2022-10-31T03:13:59;34.83;;;24.97;;
13805;SDS011;6974;53.606;9.872;2022-10-31T03:16:32;31.97;;;25.20;;
13805;SDS011;6974;53.606;9.872;2022-10-31T03:19:08;34.23;;;24.93;;
13805;SDS011;6974;53.606;9.872;2022-10-31T03:21:37;34.27;;;24.20;;
13805;SDS011;6974;53.606;9.872;2022-10-31T03:24:11;33.20;;;24.47;;
13805;SDS011;6974;53.606;9.872;2022-10-31T03:26:41;36.17;;;25.33;;
13805;SDS011;6974;53.606;9.872;2022-10-31T03:29:13;31.13;;;24.33;;
13805;SDS011;6974;53.606;9.872;2022-10-31T03:31:44;34.20;;;25.70;;
13805;SDS011;6974;53.606;9.872;2022-10-31T03:34:18;33.67;;;25.20;;
13805;SDS011;6974;53.606;9.872;2022-10-31T03:36:47;30.23;;;24.43;;
13805;SDS011;6974;53.606;9.872;2022-10-31T03:39:18;37.47;;;26.03;;
13805;SDS011;6974;53.606;9.872;2022-10-31T03:41:48;35.20;;;25.60;;
13805;SDS011;6974;53.606;9.872;2022-10-31T03:44:20;34.43;;;26.63;;
13805;SDS011;6974;53.606;9.872;2022-10-31T03:46:48;34.30;;;26.60;;
13805;SDS011;6974;53.606;9.872;2022-10-31T03:49:17;30.67;;;24.87;;
13805;SDS011;6974;53.606;9.872;2022-10-31T03:51:45;37.13;;;27.13;;
13805;SDS011;6974;53.606;9.872;2022-10-31T03:54:20;35.17;;;27.47;;
13805;SDS011;6974;53.606;9.872;2022-10-31T03:56:52;34.53;;;26.37;;
13805;SDS011;6974;53.606;9.872;2022-10-31T03:59:23;33.97;;;26.27;;
13805;SDS011;6974;53.606;9.872;2022-10-31T04:01:53;33.10;;;24.80;;
13805;SDS011;6974;53.606;9.872;2022-10-31T04:04:29;38.43;;;27.70;;
13805;SDS011;6974;53.606;9.872;2022-10-31T04:06:56;31.43;;;25.50;;
13805;SDS011;6974;53.606;9.872;2022-10-31T04:09:26;32.90;;;25.57;;
13805;SDS011;6974;53.606;9.872;2022-10-31T04:11:55;31.90;;;26.40;;
13805;SDS011;6974;53.606;9.872;2022-10-31T04:14:25;34.30;;;27.20;;
13805;SDS011;6974;53.606;9.872;2022-10-31T04:16:55;37.63;;;27.67;;
13805;SDS011;6974;53.606;9.872;2022-10-31T04:19:22;40.67;;;28.73;;
13805;SDS011;6974;53.606;9.872;2022-10-31T04:21:51;44.63;;;29.87;;
13805;SDS011;6974;53.606;9.872;2022-10-31T04:24:18;41.27;;;29.37;;
13805;SDS011;6974;53.606;9.872;2022-10-31T04:26:46;40.50;;;29.67;;
13805;SDS011;6974;53.606;9.872;2022-10-31T04:29:12;36.70;;;28.33;;
13805;SDS011;6974;53.606;9.872;2022-10-31T04:31:40;36.87;;;29.13;;
13805;SDS011;6974;53.606;9.872;2022-10-31T04:34:07;45.70;;;30.47;;
13805;SDS011;6974;53.606;9.872;2022-10-31T04:36:34;42.07;;;30.23;;
13805;SDS011;6974;53.606;9.872;2022-10-31T04:39:03;44.33;;;31.13;;
13805;SDS011;6974;53.606;9.872;2022-10-31T04:41:30;44.80;;;30.43;;
13805;SDS011;6974;53.606;9.872;2022-10-31T04:43:57;44.13;;;30.60;;
13805;SDS011;6974;53.606;9.872;2022-10-31T04:46:24;45.70;;;31.07;;
13805;SDS011;6974;53.606;9.872;2022-10-31T04:48:51;38.80;;;29.60;;
13805;SDS011;6974;53.606;9.872;2022-10-31T04:51:17;42.60;;;31.43;;
13805;SDS011;6974;53.606;9.872;2022-10-31T04:53:46;39.60;;;29.00;;
13805;SDS011;6974;53.606;9.872;2022-10-31T04:56:14;43.90;;;31.03;;
13805;SDS011;6974;53.606;9.872;2022-10-31T04:58:41;41.47;;;31.00;;
13805;SDS011;6974;53.606;9.872;2022-10-31T05:01:09;41.53;;;30.40;;
13805;SDS011;6974;53.606;9.872;2022-10-31T05:03:36;45.17;;;30.90;;
13805;SDS011;6974;53.606;9.872;2022-10-31T05:06:04;40.43;;;29.90;;
13805;SDS011;6974;53.606;9.872;2022-10-31T05:08:31;45.23;;;30.47;;
13805;SDS011;6974;53.606;9.872;2022-10-31T05:10:59;42.83;;;31.00;;
13805;SDS011;6974;53.606;9.872;2022-10-31T05:13:28;39.77;;;30.20;;
13805;SDS011;6974;53.606;9.872;2022-10-31T05:15:55;47.17;;;31.90;;
13805;SDS011;6974;53.606;9.872;2022-10-31T05:18:22;39.47;;;30.63;;
13805;SDS011;6974;53.606;9.872;2022-10-31T05:20:49;38.60;;;30.13;;
13805;SDS011;6974;53.606;9.872;2022-10-31T05:23:16;42.83;;;30.53;;
13805;SDS011;6974;53.606;9.872;2022-10-31T05:25:44;40.90;;;29.67;;
13805;SDS011;6974;53.606;9.872;2022-10-31T05:28:11;40.20;;;28.67;;
13805;SDS011;6974;53.606;9.872;2022-10-31T05:30:39;43.47;;;30.37;;
13805;SDS011;6974;53.606;9.872;2022-10-31T05:33:06;40.50;;;28.67;;
13805;SDS011;6974;53.606;9.872;2022-10-31T05:35:33;42.33;;;29.10;;
13805;SDS011;6974;53.606;9.872;2022-10-31T05:38:00;40.70;;;28.67;;
13805;SDS011;6974;53.606;9.872;2022-10-31T05:40:27;38.73;;;29.73;;
13805;SDS011;6974;53.606;9.872;2022-10-31T05:42:54;42.17;;;29.67;;
13805;SDS011;6974;53.606;9.872;2022-10-31T05:45:24;40.43;;;29.60;;
13805;SDS011;6974;53.606;9.872;2022-10-31T05:47:53;40.17;;;29.23;;
13805;SDS011;6974;53.606;9.872;2022-10-31T05:50:21;38.00;;;29.37;;
13805;SDS011;6974;53.606;9.872;2022-10-31T05:52:53;42.50;;;30.50;;
13805;SDS011;6974;53.606;9.872;2022-10-31T05:55:21;42.70;;;30.20;;
13805;SDS011;6974;53.606;9.872;2022-10-31T05:57:48;37.10;;;28.10;;
13805;SDS011;6974;53.606;9.872;2022-10-31T06:00:15;35.37;;;27.73;;
13805;SDS011;6974;53.606;9.872;2022-10-31T06:02:42;36.83;;;26.93;;
13805;SDS011;6974;53.606;9.872;2022-10-31T06:05:11;34.93;;;26.63;;
13805;SDS011;6974;53.606;9.872;2022-10-31T06:07:38;34.03;;;26.33;;
13805;SDS011;6974;53.606;9.872;2022-10-31T06:10:06;34.07;;;27.37;;
13805;SDS011;6974;53.606;9.872;2022-10-31T06:12:34;38.33;;;26.93;;
13805;SDS011;6974;53.606;9.872;2022-10-31T06:15:03;35.37;;;27.10;;
13805;SDS011;6974;53.606;9.872;2022-10-31T06:17:32;32.37;;;26.13;;
13805;SDS011;6974;53.606;9.872;2022-10-31T06:19:59;30.60;;;25.43;;
13805;SDS011;6974;53.606;9.872;2022-10-31T06:22:28;34.57;;;26.90;;
13805;SDS011;6974;53.606;9.872;2022-10-31T06:24:55;34.47;;;28.13;;
13805;SDS011;6974;53.606;9.872;2022-10-31T06:27:22;33.80;;;26.77;;
13805;SDS011;6974;53.606;9.872;2022-10-31T06:29:49;32.37;;;25.27;;
13805;SDS011;6974;53.606;9.872;2022-10-31T06:32:16;33.13;;;27.03;;
13805;SDS011;6974;53.606;9.872;2022-10-31T06:34:43;33.20;;;26.27;;
13805;SDS011;6974;53.606;9.872;2022-10-31T06:37:13;30.73;;;25.33;;
13805;SDS011;6974;53.606;9.872;2022-10-31T06:39:42;32.30;;;25.87;;
13805;SDS011;6974;53.606;9.872;2022-10-31T06:42:09;30.57;;;24.53;;
13805;SDS011;6974;53.606;9.872;2022-10-31T06:44:36;32.20;;;25.40;;
13805;SDS011;6974;53.606;9.872;2022-10-31T06:47:03;32.73;;;27.43;;
13805;SDS011;6974;53.606;9.872;2022-10-31T06:49:32;32.83;;;26.93;;
13805;SDS011;6974;53.606;9.872;2022-10-31T06:51:59;32.17;;;26.33;;
13805;SDS011;6974;53.606;9.872;2022-10-31T06:54:26;30.10;;;25.83;;
13805;SDS011;6974;53.606;9.872;2022-10-31T06:56:54;32.60;;;26.53;;
13805;SDS011;6974;53.606;9.872;2022-10-31T06:59:22;29.57;;;25.27;;
13805;SDS011;6974;53.606;9.872;2022-10-31T07:01:50;27.23;;;23.90;;
13805;SDS011;6974;53.606;9.872;2022-10-31T07:04:17;29.77;;;24.97;;
13805;SDS011;6974;53.606;9.872;2022-10-31T07:06:44;27.57;;;24.20;;
13805;SDS011;6974;53.606;9.872;2022-10-31T07:09:11;29.23;;;24.87;;
13805;SDS011;6974;53.606;9.872;2022-10-31T07:11:38;32.40;;;24.80;;
13805;SDS011;6974;53.606;9.872;2022-10-31T07:14:06;31.47;;;25.70;;
13805;SDS011;6974;53.606;9.872;2022-10-31T07:16:34;30.97;;;26.33;;
13805;SDS011;6974;53.606;9.872;2022-10-31T07:19:01;29.20;;;24.00;;
13805;SDS011;6974;53.606;9.872;2022-10-31T07:21:28;29.23;;;23.60;;
13805;SDS011;6974;53.606;9.872;2022-10-31T07:23:54;24.20;;;21.37;;
13805;SDS011;6974;53.606;9.872;2022-10-31T07:26:21;27.17;;;21.63;;
13805;SDS011;6974;53.606;9.872;2022-10-31T07:28:48;23.43;;;20.20;;
13805;SDS011;6974;53.606;9.872;2022-10-31T07:31:16;23.07;;;20.57;;
13805;SDS011;6974;53.606;9.872;2022-10-31T07:33:43;22.00;;;19.70;;
13805;SDS011;6974;53.606;9.872;2022-10-31T07:36:10;21.40;;;18.47;;
13805;SDS011;6974;53.606;9.872;2022-10-31T07:38:37;20.43;;;17.83;;
13805;SDS011;6974;53.606;9.872;2022-10-31T07:41:04;21.17;;;18.17;;
13805;SDS011;6974;53.606;9.872;2022-10-31T07:43:31;19.87;;;16.97;;
13805;SDS011;6974;53.606;9.872;2022-10-31T07:45:57;32.87;;;23.83;;
13805;SDS011;6974;53.606;9.872;2022-10-31T07:48:26;23.97;;;18.10;;
13805;SDS011;6974;53.606;9.872;2022-10-31T07:50:53;20.07;;;17.90;;
13805;SDS011;6974;53.606;9.872;2022-10-31T07:53:20;20.87;;;16.43;;
13805;SDS011;6974;53.606;9.872;2022-10-31T07:55:47;18.83;;;16.93;;
13805;SDS011;6974;53.606;9.872;2022-10-31T07:58:15;18.83;;;16.83;;
13805;SDS011;6974;53.606;9.872;2022-10-31T08:00:44;19.50;;;17.10;;
13805;SDS011;6974;53.606;9.872;2022-10-31T08:03:12;19.20;;;17.17;;
13805;SDS011;6974;53.606;9.872;2022-10-31T08:05:41;17.57;;;15.77;;
13805;SDS011;6974;53.606;9.872;2022-10-31T08:08:10;19.13;;;16.70;;
13805;SDS011;6974;53.606;9.872;2022-10-31T08:10:38;17.17;;;15.37;;
13805;SDS011;6974;53.606;9.872;2022-10-31T08:13:06;18.70;;;16.67;;
13805;SDS011;6974;53.606;9.872;2022-10-31T08:15:34;17.97;;;16.17;;
13805;SDS011;6974;53.606;9.872;2022-10-31T08:18:04;18.67;;;16.47;;
13805;SDS011;6974;53.606;9.872;2022-10-31T08:20:31;21.87;;;16.73;;
13805;SDS011;6974;53.606;9.872;2022-10-31T08:23:00;19.03;;;17.03;;
13805;SDS011;6974;53.606;9.872;2022-10-31T08:25:31;18.67;;;16.67;;
13805;SDS011;6974;53.606;9.872;2022-10-31T08:27:59;19.00;;;17.03;;
13805;SDS011;6974;53.606;9.872;2022-10-31T08:30:27;24.63;;;16.57;;
13805;SDS011;6974;53.606;9.872;2022-10-31T08:32:57;17.70;;;16.03;;
13805;SDS011;6974;53.606;9.872;2022-10-31T08:35:28;16.83;;;15.13;;
13805;SDS011;6974;53.606;9.872;2022-10-31T08:37:55;17.47;;;15.63;;
13805;SDS011;6974;53.606;9.872;2022-10-31T08:40:25;16.80;;;15.20;;
13805;SDS011;6974;53.606;9.872;2022-10-31T08:42:56;16.63;;;14.93;;
13805;SDS011;6974;53.606;9.872;2022-10-31T08:45:24;16.33;;;14.73;;
13805;SDS011;6974;53.606;9.872;2022-10-31T08:47:51;19.93;;;15.43;;
13805;SDS011;6974;53.606;9.872;2022-10-31T08:50:22;21.70;;;16.67;;
13805;SDS011;6974;53.606;9.872;2022-10-31T08:52:49;18.03;;;16.10;;
13805;SDS011;6974;53.606;9.872;2022-10-31T08:55:15;19.33;;;17.30;;
13805;SDS011;6974;53.606;9.872;2022-10-31T08:57:44;19.80;;;17.70;;
13805;SDS011;6974;53.606;9.872;2022-10-31T09:00:11;18.23;;;16.40;;
13805;SDS011;6974;53.606;9.872;2022-10-31T09:02:38;18.23;;;16.33;;
13805;SDS011;6974;53.606;9.872;2022-10-31T09:05:05;18.03;;;15.87;;
13805;SDS011;6974;53.606;9.872;2022-10-31T09:07:32;20.47;;;16.87;;
13805;SDS011;6974;53.606;9.872;2022-10-31T09:09:59;19.57;;;17.57;;
13805;SDS011;6974;53.606;9.872;2022-10-31T09:12:26;19.10;;;17.13;;
13805;SDS011;6974;53.606;9.872;2022-10-31T09:14:55;19.03;;;17.07;;
13805;SDS011;6974;53.606;9.872;2022-10-31T09:17:22;18.20;;;16.47;;
13805;SDS011;6974;53.606;9.872;2022-10-31T09:19:49;19.50;;;17.00;;
13805;SDS011;6974;53.606;9.872;2022-10-31T09:22:16;19.13;;;17.23;;
13805;SDS011;6974;53.606;9.872;2022-10-31T09:24:43;19.43;;;17.27;;
13805;SDS011;6974;53.606;9.872;2022-10-31T09:27:09;18.83;;;16.93;;
13805;SDS011;6974;53.606;9.872;2022-10-31T09:29:36;19.10;;;16.60;;
13805;SDS011;6974;53.606;9.872;2022-10-31T09:32:04;19.33;;;15.90;;
13805;SDS011;6974;53.606;9.872;2022-10-31T09:34:31;19.30;;;17.40;;
13805;SDS011;6974;53.606;9.872;2022-10-31T09:36:58;21.77;;;17.33;;
13805;SDS011;6974;53.606;9.872;2022-10-31T09:39:26;19.13;;;17.23;;
13805;SDS011;6974;53.606;9.872;2022-10-31T09:41:56;19.90;;;17.57;;
13805;SDS011;6974;53.606;9.872;2022-10-31T09:44:47;18.87;;;16.80;;
13805;SDS011;6974;53.606;9.872;2022-10-31T09:47:24;19.20;;;16.93;;
13805;SDS011;6974;53.606;9.872;2022-10-31T09:50:06;21.33;;;17.17;;
13805;SDS011;6974;53.606;9.872;2022-10-31T09:52:43;20.47;;;16.93;;
13805;SDS011;6974;53.606;9.872;2022-10-31T09:55:18;22.37;;;16.37;;
13805;SDS011;6974;53.606;9.872;2022-10-31T09:57:49;24.37;;;17.53;;
13805;SDS011;6974;53.606;9.872;2022-10-31T10:00:18;19.60;;;17.13;;
13805;SDS011;6974;53.606;9.872;2022-10-31T10:02:48;23.03;;;17.00;;
13805;SDS011;6974;53.606;9.872;2022-10-31T10:05:21;25.57;;;18.23;;
13805;SDS011;6974;53.606;9.872;2022-10-31T10:07:55;22.77;;;17.53;;
13805;SDS011;6974;53.606;9.872;2022-10-31T10:10:30;23.00;;;17.67;;
13805;SDS011;6974;53.606;9.872;2022-10-31T10:13:12;24.50;;;17.57;;
13805;SDS011;6974;53.606;9.872;2022-10-31T10:15:56;20.93;;;15.40;;
13805;SDS011;6974;53.606;9.872;2022-10-31T10:18:37;18.07;;;13.53;;
13805;SDS011;6974;53.606;9.872;2022-10-31T10:21:15;17.10;;;12.67;;
13805;SDS011;6974;53.606;9.872;2022-10-31T10:23:52;20.37;;;15.37;;
13805;SDS011;6974;53.606;9.872;2022-10-31T10:26:27;16.60;;;12.83;;
13805;SDS011;6974;53.606;9.872;2022-10-31T10:29:01;16.83;;;11.87;;
13805;SDS011;6974;53.606;9.872;2022-10-31T10:31:35;18.77;;;13.53;;
13805;SDS011;6974;53.606;9.872;2022-10-31T10:34:10;20.87;;;13.90;;
13805;SDS011;6974;53.606;9.872;2022-10-31T10:36:43;21.07;;;14.93;;
13805;SDS011;6974;53.606;9.872;2022-10-31T10:39:16;22.67;;;14.93;;
13805;SDS011;6974;53.606;9.872;2022-10-31T10:41:48;21.90;;;14.30;;
13805;SDS011;6974;53.606;9.872;2022-10-31T10:44:34;19.83;;;13.87;;
13805;SDS011;6974;53.606;9.872;2022-10-31T10:47:22;25.03;;;14.87;;
13805;SDS011;6974;53.606;9.872;2022-10-31T10:50:08;20.47;;;14.77;;
13805;SDS011;6974;53.606;9.872;2022-10-31T10:52:43;21.30;;;14.90;;
13805;SDS011;6974;53.606;9.872;2022-10-31T10:55:21;21.83;;;14.60;;
13805;SDS011;6974;53.606;9.872;2022-10-31T10:57:56;21.30;;;15.37;;
13805;SDS011;6974;53.606;9.872;2022-10-31T11:00:26;18.47;;;14.60;;
13805;SDS011;6974;53.606;9.872;2022-10-31T11:02:56;21.80;;;15.37;;
13805;SDS011;6974;53.606;9.872;2022-10-31T11:05:25;20.67;;;13.97;;
13805;SDS011;6974;53.606;9.872;2022-10-31T11:07:59;19.23;;;13.07;;
13805;SDS011;6974;53.606;9.872;2022-10-31T11:10:27;18.47;;;13.37;;
13805;SDS011;6974;53.606;9.872;2022-10-31T11:13:03;23.53;;;15.87;;
13805;SDS011;6974;53.606;9.872;2022-10-31T11:15:35;21.20;;;14.97;;
13805;SDS011;6974;53.606;9.872;2022-10-31T11:18:04;20.03;;;15.43;;
13805;SDS011;6974;53.606;9.872;2022-10-31T11:20:33;20.03;;;15.07;;
13805;SDS011;6974;53.606;9.872;2022-10-31T11:23:02;21.00;;;15.93;;
13805;SDS011;6974;53.606;9.872;2022-10-31T11:25:47;20.63;;;15.57;;
13805;SDS011;6974;53.606;9.872;2022-10-31T11:28:16;22.67;;;15.37;;
13805;SDS011;6974;53.606;9.872;2022-10-31T11:30:44;17.47;;;13.67;;
13805;SDS011;6974;53.606;9.872;2022-10-31T11:33:16;19.67;;;14.73;;
13805;SDS011;6974;53.606;9.872;2022-10-31T11:35:47;19.60;;;15.43;;
13805;SDS011;6974;53.606;9.872;2022-10-31T11:38:15;18.40;;;13.57;;
13805;SDS011;6974;53.606;9.872;2022-10-31T11:40:51;20.10;;;13.97;;
13805;SDS011;6974;53.606;9.872;2022-10-31T11:43:21;14.47;;;12.33;;
13805;SDS011;6974;53.606;9.872;2022-10-31T11:45:52;15.80;;;11.80;;
13805;SDS011;6974;53.606;9.872;2022-10-31T11:48:20;17.40;;;12.67;;
13805;SDS011;6974;53.606;9.872;2022-10-31T11:50:51;19.10;;;13.07;;
13805;SDS011;6974;53.606;9.872;2022-10-31T11:53:22;18.53;;;14.07;;
13805;SDS011;6974;53.606;9.872;2022-10-31T11:58:42;18.77;;;13.47;;
13805;SDS011;6974;53.606;9.872;2022-10-31T12:01:21;19.10;;;12.97;;
13805;SDS011;6974;53.606;9.872;2022-10-31T12:03:53;20.00;;;14.10;;
13805;SDS011;6974;53.606;9.872;2022-10-31T12:06:28;22.80;;;16.17;;
13805;SDS011;6974;53.606;9.872;2022-10-31T12:08:58;17.83;;;14.63;;
13805;SDS011;6974;53.606;9.872;2022-10-31T12:14:22;16.27;;;14.00;;
13805;SDS011;6974;53.606;9.872;2022-10-31T12:16:56;18.13;;;14.57;;
13805;SDS011;6974;53.606;9.872;2022-10-31T12:19:30;19.23;;;15.37;;
13805;SDS011;6974;53.606;9.872;2022-10-31T12:22:05;19.07;;;15.27;;
13805;SDS011;6974;53.606;9.872;2022-10-31T12:24:45;21.30;;;18.97;;
13805;SDS011;6974;53.606;9.872;2022-10-31T12:27:34;21.80;;;18.57;;
13805;SDS011;6974;53.606;9.872;2022-10-31T12:30:11;23.53;;;19.00;;
13805;SDS011;6974;53.606;9.872;2022-10-31T12:32:50;23.20;;;20.57;;
13805;SDS011;6974;53.606;9.872;2022-10-31T12:35:36;28.13;;;20.23;;
13805;SDS011;6974;53.606;9.872;2022-10-31T12:38:23;22.60;;;18.20;;
13805;SDS011;6974;53.606;9.872;2022-10-31T12:41:14;22.67;;;18.30;;
13805;SDS011;6974;53.606;9.872;2022-10-31T12:43:52;27.30;;;21.43;;
13805;SDS011;6974;53.606;9.872;2022-10-31T12:46:29;26.50;;;20.90;;
13805;SDS011;6974;53.606;9.872;2022-10-31T12:49:22;32.00;;;22.93;;
13805;SDS011;6974;53.606;9.872;2022-10-31T12:52:10;37.73;;;25.33;;
13805;SDS011;6974;53.606;9.872;2022-10-31T12:54:52;32.90;;;25.87;;
13805;SDS011;6974;53.606;9.872;2022-10-31T12:57:29;39.27;;;27.60;;
13805;SDS011;6974;53.606;9.872;2022-10-31T13:00:02;40.67;;;28.27;;
13805;SDS011;6974;53.606;9.872;2022-10-31T13:02:35;37.80;;;27.27;;
13805;SDS011;6974;53.606;9.872;2022-10-31T13:05:11;36.00;;;26.63;;
13805;SDS011;6974;53.606;9.872;2022-10-31T13:07:45;38.17;;;29.30;;
13805;SDS011;6974;53.606;9.872;2022-10-31T13:10:19;35.43;;;28.03;;
13805;SDS011;6974;53.606;9.872;2022-10-31T13:12:52;38.17;;;28.67;;
13805;SDS011;6974;53.606;9.872;2022-10-31T13:15:23;32.53;;;26.23;;
13805;SDS011;6974;53.606;9.872;2022-10-31T13:17:54;33.23;;;26.23;;
13805;SDS011;6974;53.606;9.872;2022-10-31T13:20:24;32.03;;;26.07;;
13805;SDS011;6974;53.606;9.872;2022-10-31T13:22:56;32.53;;;25.57;;
13805;SDS011;6974;53.606;9.872;2022-10-31T13:25:30;30.90;;;25.03;;
13805;SDS011;6974;53.606;9.872;2022-10-31T13:28:05;33.47;;;25.90;;
13805;SDS011;6974;53.606;9.872;2022-10-31T13:30:42;30.70;;;24.57;;
13805;SDS011;6974;53.606;9.872;2022-10-31T13:33:11;28.23;;;23.67;;
13805;SDS011;6974;53.606;9.872;2022-10-31T13:35:44;27.83;;;23.83;;
13805;SDS011;6974;53.606;9.872;2022-10-31T13:38:18;31.77;;;24.07;;
13805;SDS011;6974;53.606;9.872;2022-10-31T13:40:52;29.27;;;23.37;;
13805;SDS011;6974;53.606;9.872;2022-10-31T13:43:28;31.73;;;24.33;;
13805;SDS011;6974;53.606;9.872;2022-10-31T13:46:00;26.17;;;23.30;;
13805;SDS011;6974;53.606;9.872;2022-10-31T13:48:34;26.97;;;22.30;;
13805;SDS011;6974;53.606;9.872;2022-10-31T13:51:05;28.50;;;23.00;;
13805;SDS011;6974;53.606;9.872;2022-10-31T13:53:38;25.80;;;22.03;;
13805;SDS011;6974;53.606;9.872;2022-10-31T13:56:21;25.73;;;22.33;;
13805;SDS011;6974;53.606;9.872;2022-10-31T13:58:57;24.70;;;21.17;;
13805;SDS011;6974;53.606;9.872;2022-10-31T14:01:27;29.20;;;23.50;;
13805;SDS011;6974;53.606;9.872;2022-10-31T14:04:03;25.33;;;22.10;;
13805;SDS011;6974;53.606;9.872;2022-10-31T14:06:35;27.17;;;22.43;;
13805;SDS011;6974;53.606;9.872;2022-10-31T14:09:26;28.83;;;22.93;;
13805;SDS011;6974;53.606;9.872;2022-10-31T14:11:57;28.70;;;22.67;;
13805;SDS011;6974;53.606;9.872;2022-10-31T14:14:30;27.70;;;23.50;;
13805;SDS011;6974;53.606;9.872;2022-10-31T14:17:01;34.87;;;25.23;;
13805;SDS011;6974;53.606;9.872;2022-10-31T14:19:29;32.40;;;25.03;;
13805;SDS011;6974;53.606;9.872;2022-10-31T14:21:55;34.03;;;26.37;;
13805;SDS011;6974;53.606;9.872;2022-10-31T14:24:31;34.97;;;26.30;;
13805;SDS011;6974;53.606;9.872;2022-10-31T14:27:30;33.63;;;25.60;;
13805;SDS011;6974;53.606;9.872;2022-10-31T14:30:18;32.40;;;24.03;;
13805;SDS011;6974;53.606;9.872;2022-10-31T14:32:49;30.87;;;21.20;;
13805;SDS011;6974;53.606;9.872;2022-10-31T14:35:18;28.37;;;21.03;;
13805;SDS011;6974;53.606;9.872;2022-10-31T14:37:52;25.33;;;20.57;;
13805;SDS011;6974;53.606;9.872;2022-10-31T14:40:33;24.43;;;20.43;;
13805;SDS011;6974;53.606;9.872;2022-10-31T14:43:42;25.13;;;19.80;;
13805;SDS011;6974;53.606;9.872;2022-10-31T14:46:24;23.00;;;19.70;;
13805;SDS011;6974;53.606;9.872;2022-10-31T14:49:04;27.47;;;21.33;;
13805;SDS011;6974;53.606;9.872;2022-10-31T14:51:50;24.83;;;19.57;;
13805;SDS011;6974;53.606;9.872;2022-10-31T14:54:19;22.83;;;18.83;;
13805;SDS011;6974;53.606;9.872;2022-10-31T14:56:52;26.80;;;18.53;;
13805;SDS011;6974;53.606;9.872;2022-10-31T14:59:24;21.27;;;18.20;;
13805;SDS011;6974;53.606;9.872;2022-10-31T15:01:56;21.70;;;18.60;;
13805;SDS011;6974;53.606;9.872;2022-10-31T15:04:26;22.43;;;17.53;;